Time;durP1;ratioP1;P1;durP2;ratioP2;P2;SDS_P1;SDS_P2;PMS_P1;PMS_P2;Temp;Humidity;BMP_temperature;BMP_pressure;BME280_temperature;BME280_humidity;BME280_pressure;Samples;Min_cycle;Max_cycle;Signal;HPM_P1;HPM_P2
2023/09/12 00:00:05;;;;;;;7.10;5.97;;;24.70;47.00;;;;;;352353;28;966;-56
2023/09/12 00:00:16;;;;;;;7.47;5.70;;;24.70;46.90;;;;;;352339;28;1192;-55
2023/09/12 00:00:27;;;;;;;7.38;5.57;;;24.60;46.90;;;;;;352384;28;1065;-56
2023/09/12 00:00:37;;;;;;;7.20;5.33;;;24.70;46.90;;;;;;352306;28;1002;-55
2023/09/12 00:00:48;;;;;;;6.90;5.50;;;24.70;46.90;;;;;;352455;28;979;-56
2023/09/12 00:01:05;;;;;;;7.15;5.53;;;24.70;46.90;;;;;;352426;28;933;-55
2023/09/12 00:01:16;;;;;;;6.28;5.55;;;24.60;46.80;;;;;;352396;28;973;-56
2023/09/12 00:01:27;;;;;;;6.18;5.53;;;24.60;46.90;;;;;;352357;28;1308;-56
2023/09/12 00:01:38;;;;;;;6.00;5.40;;;24.70;47.00;;;;;;352410;28;824;-57
2023/09/12 00:01:48;;;;;;;7.00;5.70;;;24.60;47.00;;;;;;352366;28;1127;-55
2023/09/12 00:01:59;;;;;;;7.15;5.72;;;24.70;47.00;;;;;;352301;28;1114;-57
2023/09/12 00:02:10;;;;;;;7.30;5.85;;;24.60;47.00;;;;;;352414;28;1014;-57
2023/09/12 00:02:20;;;;;;;6.90;5.55;;;24.60;47.00;;;;;;352291;28;1102;-57
2023/09/12 00:02:31;;;;;;;6.83;5.33;;;24.70;46.90;;;;;;352458;28;820;-56
2023/09/12 00:02:42;;;;;;;7.70;5.40;;;24.60;46.80;;;;;;352449;28;840;-57
2023/09/12 00:02:53;;;;;;;7.10;5.30;;;24.60;46.80;;;;;;352342;28;1030;-55
2023/09/12 00:03:04;;;;;;;7.38;5.35;;;24.70;46.80;;;;;;352464;28;884;-55
2023/09/12 00:03:14;;;;;;;6.83;5.47;;;24.60;46.70;;;;;;352391;28;1070;-58
2023/09/12 00:03:25;;;;;;;7.43;5.68;;;24.60;46.70;;;;;;352382;28;1055;-57
2023/09/12 00:03:36;;;;;;;7.35;5.55;;;24.60;46.60;;;;;;352478;28;828;-56
2023/09/12 00:03:47;;;;;;;7.63;5.53;;;24.70;46.70;;;;;;352432;28;1027;-56
2023/09/12 00:03:58;;;;;;;7.80;5.63;;;24.60;46.70;;;;;;352277;28;1162;-56
2023/09/12 00:04:11;;;;;;;8.25;5.75;;;24.60;46.70;;;;;;352448;28;1092;-56
2023/09/12 00:04:21;;;;;;;7.97;5.88;;;24.60;46.70;;;;;;352409;28;1021;-55
2023/09/12 00:04:32;;;;;;;7.47;5.70;;;24.60;46.80;;;;;;352255;28;1845;-56
2023/09/12 00:04:43;;;;;;;6.80;5.75;;;24.70;46.90;;;;;;352499;28;885;-57
2023/09/12 00:04:54;;;;;;;6.60;5.70;;;24.70;46.90;;;;;;352378;28;979;-56
2023/09/12 00:05:05;;;;;;;6.50;5.63;;;24.60;46.80;;;;;;352358;28;1165;-57
2023/09/12 00:05:16;;;;;;;6.55;5.43;;;24.60;46.90;;;;;;352404;28;1231;-56
2023/09/12 00:05:27;;;;;;;6.30;5.22;;;24.70;46.80;;;;;;352412;28;939;-56
2023/09/12 00:05:38;;;;;;;6.27;5.30;;;24.70;46.80;;;;;;352308;28;1016;-56
2023/09/12 00:05:56;;;;;;;5.80;5.20;;;24.60;46.80;;;;;;352350;28;2441;-57
2023/09/12 00:06:07;;;;;;;5.55;4.95;;;24.60;46.70;;;;;;352276;28;1015;-56
2023/09/12 00:06:18;;;;;;;5.80;5.07;;;24.60;46.60;;;;;;352422;28;1082;-55
2023/09/12 00:06:28;;;;;;;6.53;5.10;;;24.60;46.40;;;;;;352404;28;852;-56
2023/09/12 00:06:39;;;;;;;6.55;5.05;;;24.60;46.40;;;;;;352350;28;1093;-56
2023/09/12 00:06:50;;;;;;;7.00;4.93;;;24.60;46.40;;;;;;352412;28;1026;-56
2023/09/12 00:07:00;;;;;;;6.38;4.80;;;24.60;46.30;;;;;;352363;28;1142;-56
2023/09/12 00:07:11;;;;;;;6.10;4.70;;;24.60;46.30;;;;;;352320;28;963;-56
2023/09/12 00:07:22;;;;;;;5.55;4.50;;;24.60;46.20;;;;;;352453;28;812;-56
2023/09/12 00:07:35;;;;;;;5.40;4.40;;;24.60;46.10;;;;;;352444;28;884;-56
2023/09/12 00:07:46;;;;;;;5.15;4.20;;;24.60;46.20;;;;;;352378;28;909;-56
2023/09/12 00:07:56;;;;;;;4.78;4.13;;;24.60;46.30;;;;;;352382;28;1082;-57
2023/09/12 00:08:07;;;;;;;4.88;4.20;;;24.60;46.20;;;;;;352475;28;1003;-56
2023/09/12 00:08:18;;;;;;;6.00;4.30;;;24.60;46.10;;;;;;352345;28;1052;-56
2023/09/12 00:08:28;;;;;;;6.90;5.03;;;24.60;46.20;;;;;;352407;28;1783;-56
2023/09/12 00:08:39;;;;;;;7.65;5.57;;;24.60;46.10;;;;;;352385;28;1031;-56
2023/09/12 00:08:52;;;;;;;7.28;5.47;;;24.60;46.10;;;;;;352401;28;1094;-56
2023/09/12 00:09:05;;;;;;;6.63;4.82;;;24.60;46.20;;;;;;352296;28;1515;-57
2023/09/12 00:09:16;;;;;;;5.55;4.80;;;24.60;46.10;;;;;;352442;28;1082;-57
2023/09/12 00:09:27;;;;;;;5.50;4.73;;;24.60;46.10;;;;;;352416;28;939;-56
2023/09/12 00:09:38;;;;;;;5.05;4.50;;;24.60;46.10;;;;;;352457;28;871;-56
2023/09/12 00:09:49;;;;;;;4.93;4.25;;;24.60;46.10;;;;;;352309;28;1015;-55
2023/09/12 00:09:59;;;;;;;4.97;4.18;;;24.60;46.10;;;;;;352387;28;1141;-57
2023/09/12 00:10:10;;;;;;;5.30;4.10;;;24.60;46.10;;;;;;352407;28;951;-56
2023/09/12 00:10:21;;;;;;;5.95;4.32;;;24.60;46.10;;;;;;352453;28;979;-56
2023/09/12 00:10:32;;;;;;;5.88;4.32;;;24.60;46.10;;;;;;352342;28;906;-55
2023/09/12 00:10:43;;;;;;;8.43;4.72;;;24.60;46.10;;;;;;352456;28;965;-56
2023/09/12 00:11:10;;;;;;;9.23;5.07;;;24.60;46.10;;;;;;352413;28;975;-56
2023/09/12 00:11:20;;;;;;;5.93;4.22;;;24.60;46.10;;;;;;352377;28;1034;-56
2023/09/12 00:11:31;;;;;;;5.50;4.00;;;24.60;46.00;;;;;;352409;28;845;-56
2023/09/12 00:11:42;;;;;;;5.35;3.90;;;24.60;45.90;;;;;;352408;28;999;-55
2023/09/12 00:11:53;;;;;;;5.03;3.90;;;24.60;45.90;;;;;;352357;28;893;-57
2023/09/12 00:12:05;;;;;;;5.13;3.95;;;24.60;45.80;;;;;;352357;28;1196;-55
2023/09/12 00:12:16;;;;;;;5.30;4.05;;;24.60;45.80;;;;;;352361;28;1177;-56
2023/09/12 00:12:27;;;;;;;5.28;4.05;;;24.60;45.80;;;;;;352393;28;1030;-56
2023/09/12 00:12:38;;;;;;;5.00;4.10;;;24.60;45.80;;;;;;352274;28;1592;-56
2023/09/12 00:12:49;;;;;;;4.55;3.80;;;24.60;45.70;;;;;;352422;28;1053;-56
2023/09/12 00:13:00;;;;;;;4.30;3.65;;;24.60;45.70;;;;;;352414;28;1150;-56
2023/09/12 00:13:11;;;;;;;4.50;3.65;;;24.60;45.70;;;;;;352394;28;1160;-56
2023/09/12 00:13:22;;;;;;;4.85;3.70;;;24.60;45.70;;;;;;352406;28;1035;-56
2023/09/12 00:13:33;;;;;;;4.80;3.60;;;24.60;45.70;;;;;;352393;28;912;-56
2023/09/12 00:13:44;;;;;;;5.28;3.90;;;24.60;45.80;;;;;;352385;28;1079;-55
2023/09/12 00:13:55;;;;;;;5.43;3.95;;;24.60;45.80;;;;;;352402;28;1004;-56
2023/09/12 00:14:07;;;;;;;5.80;4.07;;;24.60;45.80;;;;;;352322;28;979;-56
2023/09/12 00:14:18;;;;;;;5.60;3.92;;;24.60;45.70;;;;;;352366;28;1023;-56
2023/09/12 00:14:29;;;;;;;5.27;3.97;;;24.60;45.80;;;;;;352395;28;1133;-56
2023/09/12 00:14:39;;;;;;;4.75;3.80;;;24.60;45.80;;;;;;352348;28;988;-56
2023/09/12 00:14:50;;;;;;;4.82;3.95;;;24.60;45.80;;;;;;352400;28;1014;-57
2023/09/12 00:15:04;;;;;;;5.60;4.55;;;24.60;45.80;;;;;;352407;28;880;-56
2023/09/12 00:15:14;;;;;;;5.53;4.40;;;24.60;45.80;;;;;;352300;28;1181;-57
2023/09/12 00:15:25;;;;;;;5.88;4.38;;;24.60;45.80;;;;;;352423;28;975;-56
2023/09/12 00:15:36;;;;;;;5.38;4.10;;;24.60;45.80;;;;;;352345;28;869;-56
2023/09/12 00:15:47;;;;;;;5.53;4.05;;;24.60;45.80;;;;;;352391;28;1014;-56
2023/09/12 00:15:58;;;;;;;5.57;3.83;;;24.60;45.80;;;;;;352380;28;817;-56
2023/09/12 00:16:11;;;;;;;5.90;4.10;;;24.60;45.80;;;;;;352372;28;1968;-56
2023/09/12 00:16:22;;;;;;;5.80;4.13;;;24.60;45.80;;;;;;352370;28;1208;-55
2023/09/12 00:16:33;;;;;;;6.43;4.05;;;24.60;45.90;;;;;;352353;28;1701;-57
2023/09/12 00:16:43;;;;;;;5.87;3.90;;;24.60;45.90;;;;;;352460;28;958;-56
2023/09/12 00:16:55;;;;;;;5.38;3.95;;;24.60;45.90;;;;;;352351;28;1229;-57
2023/09/12 00:17:06;;;;;;;4.50;3.90;;;24.60;45.90;;;;;;352355;28;1005;-55
2023/09/12 00:17:16;;;;;;;4.80;3.80;;;24.60;45.90;;;;;;352429;28;1010;-55
2023/09/12 00:17:27;;;;;;;5.07;3.72;;;24.60;45.80;;;;;;352392;28;1066;-56
2023/09/12 00:17:38;;;;;;;5.68;3.70;;;24.60;45.80;;;;;;352326;28;1172;-57
2023/09/12 00:17:49;;;;;;;5.53;3.93;;;24.60;45.80;;;;;;352440;28;999;-57
2023/09/12 00:17:59;;;;;;;5.43;4.38;;;24.60;45.70;;;;;;352465;28;813;-57
2023/09/12 00:18:10;;;;;;;5.03;4.30;;;24.60;45.80;;;;;;352338;28;905;-56
2023/09/12 00:18:21;;;;;;;5.05;4.28;;;24.60;45.80;;;;;;352363;28;1015;-56
2023/09/12 00:18:34;;;;;;;5.03;4.00;;;24.60;45.80;;;;;;352331;28;987;-55
2023/09/12 00:18:45;;;;;;;5.00;3.90;;;24.60;45.80;;;;;;352445;28;962;-56
2023/09/12 00:18:55;;;;;;;5.47;4.10;;;24.60;45.80;;;;;;352311;28;1960;-56
2023/09/12 00:19:06;;;;;;;5.33;4.10;;;24.60;45.80;;;;;;352382;28;1421;-56
2023/09/12 00:19:17;;;;;;;5.05;3.90;;;24.60;45.90;;;;;;352447;28;1821;-56
2023/09/12 00:19:27;;;;;;;5.75;3.95;;;24.60;45.90;;;;;;352338;28;1090;-57
2023/09/12 00:19:38;;;;;;;5.80;3.97;;;24.60;45.90;;;;;;352351;28;1028;-56
2023/09/12 00:19:49;;;;;;;5.60;3.92;;;24.60;45.90;;;;;;352383;28;1070;-56
2023/09/12 00:19:59;;;;;;;4.88;3.75;;;24.60;45.90;;;;;;352427;28;1063;-56
2023/09/12 00:20:11;;;;;;;5.00;3.85;;;24.60;45.90;;;;;;352453;28;832;-56
2023/09/12 00:20:21;;;;;;;5.15;3.75;;;24.60;45.90;;;;;;352270;28;1718;-56
2023/09/12 00:20:32;;;;;;;6.22;4.15;;;24.60;46.00;;;;;;352392;28;936;-56
2023/09/12 00:20:43;;;;;;;6.32;4.25;;;24.60;46.00;;;;;;352426;28;1835;-57
2023/09/12 00:20:54;;;;;;;6.50;4.67;;;24.60;46.00;;;;;;352383;28;1079;-56
2023/09/12 00:21:05;;;;;;;5.25;4.13;;;24.60;46.00;;;;;;352321;28;1046;-57
2023/09/12 00:21:15;;;;;;;4.80;4.00;;;24.60;46.00;;;;;;352355;28;1756;-56
2023/09/12 00:21:26;;;;;;;4.85;3.80;;;24.50;46.10;;;;;;352411;28;903;-57
2023/09/12 00:21:37;;;;;;;4.80;3.80;;;24.60;46.10;;;;;;352422;28;995;-55
2023/09/12 00:21:48;;;;;;;5.38;3.95;;;24.60;46.10;;;;;;352383;27;1039;-56
2023/09/12 00:21:59;;;;;;;6.35;4.70;;;24.50;46.10;;;;;;352412;28;883;-56
2023/09/12 00:22:09;;;;;;;6.32;4.88;;;24.60;46.00;;;;;;352450;28;967;-57
2023/09/12 00:22:20;;;;;;;5.60;4.35;;;24.60;46.00;;;;;;352397;28;1447;-56
2023/09/12 00:22:31;;;;;;;4.53;3.80;;;24.50;46.00;;;;;;352287;28;862;-56
2023/09/12 00:22:42;;;;;;;4.70;3.83;;;24.50;46.00;;;;;;352443;28;1133;-56
2023/09/12 00:22:54;;;;;;;4.50;3.67;;;24.60;46.10;;;;;;352351;28;1634;-55
2023/09/12 00:23:05;;;;;;;5.00;3.50;;;24.60;46.00;;;;;;352455;28;1063;-56
2023/09/12 00:23:15;;;;;;;4.57;3.30;;;24.50;46.10;;;;;;352227;28;1103;-54
2023/09/12 00:23:27;;;;;;;5.43;3.65;;;24.50;46.10;;;;;;352350;28;852;-57
2023/09/12 00:23:37;;;;;;;5.05;3.85;;;24.50;46.10;;;;;;352502;28;1181;-57
2023/09/12 00:23:48;;;;;;;4.82;3.70;;;24.50;46.20;;;;;;352369;28;2074;-57
2023/09/12 00:23:59;;;;;;;4.43;3.55;;;24.50;46.20;;;;;;352350;28;1110;-56
2023/09/12 00:24:10;;;;;;;4.60;3.67;;;24.60;46.20;;;;;;352354;28;1169;-56
2023/09/12 00:24:20;;;;;;;4.32;3.67;;;24.50;46.20;;;;;;352406;28;844;-58
2023/09/12 00:24:31;;;;;;;4.50;3.90;;;24.50;46.20;;;;;;352233;28;1659;-56
2023/09/12 00:24:42;;;;;;;4.35;3.95;;;24.50;46.20;;;;;;352388;28;1066;-55
2023/09/12 00:24:52;;;;;;;4.67;4.07;;;24.50;46.20;;;;;;352449;28;965;-56
2023/09/12 00:25:04;;;;;;;4.78;3.90;;;24.50;46.30;;;;;;352344;28;987;-57
2023/09/12 00:25:14;;;;;;;4.72;3.78;;;24.50;46.30;;;;;;352355;28;1178;-57
2023/09/12 00:25:25;;;;;;;4.90;3.88;;;24.50;46.30;;;;;;352337;28;991;-56
2023/09/12 00:25:36;;;;;;;4.85;3.95;;;24.50;46.30;;;;;;352292;28;1090;-56
2023/09/12 00:25:46;;;;;;;4.93;3.90;;;24.50;46.30;;;;;;352377;28;1094;-56
2023/09/12 00:25:57;;;;;;;4.80;3.70;;;24.50;46.40;;;;;;352407;28;1066;-56
2023/09/12 00:26:08;;;;;;;5.60;3.83;;;24.50;46.40;;;;;;352308;28;908;-57
2023/09/12 00:26:19;;;;;;;5.60;3.80;;;24.50;46.40;;;;;;352413;28;890;-56
2023/09/12 00:26:30;;;;;;;5.10;3.72;;;24.50;46.40;;;;;;352339;28;1497;-56
2023/09/12 00:26:41;;;;;;;5.53;3.63;;;24.50;46.40;;;;;;352304;28;1185;-56
2023/09/12 00:26:51;;;;;;;5.50;3.85;;;24.50;46.40;;;;;;352374;28;841;-55
2023/09/12 00:27:04;;;;;;;6.10;4.30;;;24.50;46.40;;;;;;352430;28;1018;-57
2023/09/12 00:27:15;;;;;;;5.03;4.15;;;24.50;46.50;;;;;;352304;28;1133;-58
2023/09/12 00:27:26;;;;;;;4.63;3.97;;;24.50;46.50;;;;;;352374;28;1158;-56
2023/09/12 00:27:36;;;;;;;4.57;3.88;;;24.50;46.50;;;;;;352406;28;1109;-57
2023/09/12 00:27:47;;;;;;;5.00;4.00;;;24.50;46.60;;;;;;352310;28;1241;-56
2023/09/12 00:27:58;;;;;;;4.97;4.00;;;24.50;46.50;;;;;;352397;28;1011;-55
2023/09/12 00:28:09;;;;;;;4.72;3.80;;;24.40;46.50;;;;;;352381;28;1018;-57
2023/09/12 00:28:20;;;;;;;4.65;3.90;;;24.50;46.60;;;;;;352302;28;1098;-56
2023/09/12 00:28:33;;;;;;;4.62;3.78;;;24.50;46.60;;;;;;352377;28;1406;-56
2023/09/12 00:28:44;;;;;;;4.60;3.97;;;24.50;46.60;;;;;;352451;28;987;-56
2023/09/12 00:28:54;;;;;;;4.93;4.20;;;24.50;46.60;;;;;;352346;28;909;-56
2023/09/12 00:29:05;;;;;;;6.15;4.60;;;24.50;46.50;;;;;;352385;28;1118;-56
2023/09/12 00:29:16;;;;;;;6.70;4.53;;;24.50;46.50;;;;;;352449;28;1070;-56
2023/09/12 00:29:26;;;;;;;6.40;4.35;;;24.50;46.60;;;;;;352253;28;1141;-55
2023/09/12 00:29:37;;;;;;;5.80;4.05;;;24.50;46.60;;;;;;352407;28;1085;-56
2023/09/12 00:29:48;;;;;;;5.30;4.30;;;24.50;46.80;;;;;;352333;28;1106;-56
2023/09/12 00:29:58;;;;;;;5.25;4.35;;;24.40;46.80;;;;;;352352;28;1026;-56
2023/09/12 00:30:10;;;;;;;5.00;4.10;;;24.50;46.70;;;;;;352376;28;1114;-56
2023/09/12 00:30:20;;;;;;;5.72;4.05;;;24.50;46.70;;;;;;352408;28;971;-56
2023/09/12 00:30:31;;;;;;;5.50;4.03;;;24.40;46.80;;;;;;352268;28;1370;-55
2023/09/12 00:30:42;;;;;;;5.18;4.07;;;24.50;46.80;;;;;;352436;28;833;-56
2023/09/12 00:30:53;;;;;;;5.10;4.10;;;24.50;46.70;;;;;;352350;28;1026;-56
2023/09/12 00:31:03;;;;;;;5.40;4.10;;;24.50;46.80;;;;;;352201;28;1566;-55
2023/09/12 00:31:14;;;;;;;5.05;4.03;;;24.50;46.80;;;;;;352369;28;841;-56
2023/09/12 00:31:25;;;;;;;4.73;3.97;;;24.40;46.70;;;;;;352394;28;1001;-55
2023/09/12 00:31:35;;;;;;;4.43;3.85;;;24.40;46.70;;;;;;352287;28;1030;-56
2023/09/12 00:31:46;;;;;;;4.70;3.75;;;24.50;46.70;;;;;;352378;28;1059;-56
2023/09/12 00:31:57;;;;;;;4.55;3.70;;;24.40;46.70;;;;;;352338;28;1451;-55
2023/09/12 00:32:07;;;;;;;5.00;3.60;;;24.50;46.70;;;;;;352346;28;963;-55
2023/09/12 00:32:18;;;;;;;5.53;3.70;;;24.50;46.70;;;;;;352425;28;1019;-56
2023/09/12 00:32:29;;;;;;;5.90;3.83;;;24.50;46.70;;;;;;352328;28;1449;-56
2023/09/12 00:32:40;;;;;;;6.07;4.30;;;24.40;46.80;;;;;;352349;28;1041;-56
2023/09/12 00:32:50;;;;;;;5.67;4.60;;;24.50;46.80;;;;;;352378;28;1222;-56
2023/09/12 00:33:01;;;;;;;5.82;4.78;;;24.40;46.80;;;;;;352364;28;980;-55
2023/09/12 00:33:12;;;;;;;5.22;4.50;;;24.40;46.90;;;;;;352368;28;1090;-56
2023/09/12 00:33:23;;;;;;;5.50;4.32;;;24.40;46.90;;;;;;352351;28;1073;-55
2023/09/12 00:33:33;;;;;;;5.73;4.33;;;24.40;46.90;;;;;;352186;28;1241;-57
2023/09/12 00:33:44;;;;;;;6.00;4.43;;;24.50;46.90;;;;;;352276;28;1059;-55
2023/09/12 00:33:55;;;;;;;6.07;4.32;;;24.40;47.00;;;;;;352376;28;1029;-56
2023/09/12 00:34:05;;;;;;;6.32;4.40;;;24.40;47.00;;;;;;352394;28;1070;-56
2023/09/12 00:34:17;;;;;;;6.30;4.53;;;24.40;47.00;;;;;;352304;28;1000;-56
2023/09/12 00:34:28;;;;;;;5.53;4.38;;;24.40;47.00;;;;;;352353;28;1193;-56
2023/09/12 00:34:38;;;;;;;5.00;4.38;;;24.40;47.00;;;;;;352398;28;865;-55
2023/09/12 00:34:49;;;;;;;4.60;4.10;;;24.40;47.00;;;;;;352377;28;963;-56
2023/09/12 00:35:00;;;;;;;4.70;4.18;;;24.40;47.10;;;;;;352427;28;1003;-56
2023/09/12 00:35:10;;;;;;;5.10;4.22;;;24.40;47.10;;;;;;352420;28;1022;-57
2023/09/12 00:35:21;;;;;;;5.53;4.40;;;24.40;47.10;;;;;;352330;28;1162;-57
2023/09/12 00:35:32;;;;;;;5.53;4.30;;;24.40;47.10;;;;;;352380;28;856;-56
2023/09/12 00:35:44;;;;;;;5.78;4.32;;;24.40;47.10;;;;;;352357;28;841;-56
2023/09/12 00:35:55;;;;;;;5.97;4.30;;;24.40;47.20;;;;;;352271;28;1122;-57
2023/09/12 00:36:05;;;;;;;6.03;4.22;;;24.40;47.20;;;;;;352319;28;853;-56
2023/09/12 00:36:16;;;;;;;6.20;4.30;;;24.40;47.20;;;;;;352277;28;1018;-57
2023/09/12 00:36:27;;;;;;;5.88;4.38;;;24.40;47.20;;;;;;352282;28;1094;-56
2023/09/12 00:36:37;;;;;;;5.63;4.28;;;24.40;47.30;;;;;;352412;28;817;-56
2023/09/12 00:36:48;;;;;;;5.27;4.10;;;24.40;47.30;;;;;;352282;28;1633;-56
2023/09/12 00:36:59;;;;;;;5.30;4.10;;;24.40;47.30;;;;;;352395;28;877;-56
2023/09/12 00:37:09;;;;;;;5.30;4.30;;;24.40;47.30;;;;;;352382;28;1023;-55
2023/09/12 00:37:20;;;;;;;4.95;4.22;;;24.40;47.30;;;;;;352317;28;1079;-56
2023/09/12 00:37:31;;;;;;;5.03;4.30;;;24.40;47.30;;;;;;352388;28;928;-55
2023/09/12 00:37:41;;;;;;;5.43;4.30;;;24.40;47.30;;;;;;352422;28;908;-56
2023/09/12 00:37:52;;;;;;;5.60;4.35;;;24.40;47.40;;;;;;352351;28;992;-56
2023/09/12 00:38:03;;;;;;;6.45;4.22;;;24.40;47.40;;;;;;352353;28;983;-56
2023/09/12 00:38:14;;;;;;;7.05;4.22;;;24.40;47.50;;;;;;352362;28;1271;-55
2023/09/12 00:38:25;;;;;;;6.40;4.20;;;24.40;47.50;;;;;;352365;28;1022;-56
2023/09/12 00:38:35;;;;;;;5.47;4.00;;;24.40;47.50;;;;;;352390;28;1006;-55
2023/09/12 00:38:46;;;;;;;4.95;4.10;;;24.40;47.60;;;;;;352424;28;1078;-56
2023/09/12 00:38:57;;;;;;;4.85;4.07;;;24.40;47.70;;;;;;352287;28;1914;-55
2023/09/12 00:39:08;;;;;;;5.23;4.20;;;24.40;47.60;;;;;;352302;28;937;-55
2023/09/12 00:39:19;;;;;;;5.45;4.20;;;24.40;47.70;;;;;;352391;28;889;-56
2023/09/12 00:39:30;;;;;;;5.78;4.18;;;24.40;47.70;;;;;;352371;28;1166;-56
2023/09/12 00:39:41;;;;;;;5.45;4.07;;;24.40;47.70;;;;;;352361;28;1178;-56
2023/09/12 00:39:51;;;;;;;5.63;4.00;;;24.30;47.80;;;;;;352284;28;1219;-56
2023/09/12 00:40:03;;;;;;;5.45;4.25;;;24.40;47.80;;;;;;352365;28;1326;-55
2023/09/12 00:40:14;;;;;;;5.82;4.20;;;24.30;47.90;;;;;;352370;28;1077;-55
2023/09/12 00:40:25;;;;;;;6.30;4.30;;;24.30;47.80;;;;;;352394;28;1015;-55
2023/09/12 00:40:37;;;;;;;6.30;4.33;;;24.30;47.80;;;;;;352356;28;1031;-56
2023/09/12 00:40:47;;;;;;;5.80;4.22;;;24.30;47.80;;;;;;352365;28;1051;-55
2023/09/12 00:40:58;;;;;;;5.78;4.30;;;24.30;47.80;;;;;;352380;28;1091;-56
2023/09/12 00:41:09;;;;;;;5.80;4.20;;;24.30;47.90;;;;;;352349;28;1043;-55
2023/09/12 00:41:20;;;;;;;5.82;4.25;;;24.30;47.90;;;;;;352254;28;1057;-55
2023/09/12 00:41:30;;;;;;;5.60;4.10;;;24.30;47.90;;;;;;352349;28;864;-55
2023/09/12 00:41:41;;;;;;;6.45;4.10;;;24.30;47.90;;;;;;352400;28;853;-55
2023/09/12 00:41:52;;;;;;;6.72;4.20;;;24.30;47.90;;;;;;352361;28;1010;-55
2023/09/12 00:42:03;;;;;;;6.70;4.22;;;24.30;47.90;;;;;;352237;28;1646;-56
2023/09/12 00:42:13;;;;;;;6.03;4.37;;;24.30;47.90;;;;;;352401;28;1063;-57
2023/09/12 00:42:27;;;;;;;5.38;4.35;;;24.30;47.90;;;;;;352429;28;963;-55
2023/09/12 00:42:37;;;;;;;5.40;4.15;;;24.30;48.00;;;;;;352376;28;1027;-55
2023/09/12 00:42:48;;;;;;;4.97;3.97;;;24.30;47.90;;;;;;352291;28;1086;-56
2023/09/12 00:42:59;;;;;;;4.88;4.03;;;24.30;48.00;;;;;;352431;28;860;-55
2023/09/12 00:43:10;;;;;;;4.90;4.30;;;24.30;48.00;;;;;;352393;28;1153;-56
2023/09/12 00:43:21;;;;;;;5.30;4.40;;;24.30;48.10;;;;;;352419;28;1037;-55
2023/09/12 00:43:32;;;;;;;5.15;4.25;;;24.30;48.10;;;;;;352354;28;947;-56
2023/09/12 00:43:42;;;;;;;5.35;4.35;;;24.30;48.10;;;;;;352390;28;1038;-56
2023/09/12 00:43:53;;;;;;;5.87;4.20;;;24.30;48.10;;;;;;352391;28;1042;-56
2023/09/12 00:44:04;;;;;;;6.50;4.38;;;24.20;48.00;;;;;;352365;28;1178;-56
2023/09/12 00:44:15;;;;;;;6.20;4.03;;;24.20;48.00;;;;;;352333;28;905;-56
2023/09/12 00:44:25;;;;;;;6.10;4.03;;;24.30;48.00;;;;;;352468;28;872;-55
2023/09/12 00:44:36;;;;;;;6.17;3.80;;;24.20;48.00;;;;;;352375;28;821;-55
2023/09/12 00:44:47;;;;;;;6.22;3.95;;;24.30;48.00;;;;;;352363;28;1852;-56
2023/09/12 00:44:57;;;;;;;6.22;3.88;;;24.30;48.00;;;;;;352313;28;1039;-56
2023/09/12 00:45:08;;;;;;;7.15;4.28;;;24.20;48.00;;;;;;352441;28;872;-55
2023/09/12 00:45:19;;;;;;;6.93;4.55;;;24.20;48.00;;;;;;352380;28;1836;-56
2023/09/12 00:45:30;;;;;;;6.47;4.47;;;24.20;48.10;;;;;;352275;28;1094;-56
2023/09/12 00:45:41;;;;;;;5.00;4.20;;;24.20;48.00;;;;;;352314;28;1029;-56
2023/09/12 00:45:51;;;;;;;5.72;4.43;;;24.20;48.00;;;;;;352434;28;1122;-56
2023/09/12 00:46:02;;;;;;;5.90;4.47;;;24.20;48.00;;;;;;352337;28;1094;-57
2023/09/12 00:46:23;;;;;;;6.15;4.55;;;24.20;48.00;;;;;;352425;28;915;-56
2023/09/12 00:46:34;;;;;;;6.97;4.60;;;24.20;48.00;;;;;;352366;28;852;-56
2023/09/12 00:46:47;;;;;;;8.05;4.65;;;24.20;48.00;;;;;;352390;28;928;-55
2023/09/12 00:46:58;;;;;;;7.60;4.50;;;24.20;48.10;;;;;;352436;28;1019;-56
2023/09/12 00:47:10;;;;;;;6.78;4.50;;;24.20;48.10;;;;;;352290;28;964;-56
2023/09/12 00:47:23;;;;;;;6.90;4.38;;;24.20;48.10;;;;;;352356;28;955;-56
2023/09/12 00:47:36;;;;;;;5.80;3.92;;;24.20;48.20;;;;;;352290;28;1969;-56
2023/09/12 00:47:48;;;;;;;4.70;3.83;;;24.20;48.20;;;;;;352305;28;1054;-56
2023/09/12 00:48:01;;;;;;;4.22;3.70;;;24.20;48.20;;;;;;352446;28;975;-56
2023/09/12 00:48:13;;;;;;;5.70;3.85;;;24.20;48.30;;;;;;352332;28;1888;-55
2023/09/12 00:48:24;;;;;;;5.95;4.05;;;24.20;48.30;;;;;;352296;28;890;-56
2023/09/12 00:48:37;;;;;;;5.97;4.20;;;24.20;48.20;;;;;;352302;28;992;-56
2023/09/12 00:48:51;;;;;;;5.68;4.30;;;24.20;48.20;;;;;;352380;28;1089;-56
2023/09/12 00:49:04;;;;;;;6.13;4.40;;;24.20;48.20;;;;;;352249;28;1090;-56
2023/09/12 00:49:16;;;;;;;6.80;4.40;;;24.20;48.20;;;;;;352320;28;1424;-56
2023/09/12 00:49:29;;;;;;;6.57;4.28;;;24.20;48.20;;;;;;352309;28;1118;-55
2023/09/12 00:49:40;;;;;;;5.82;4.22;;;24.20;48.30;;;;;;352363;28;1075;-56
2023/09/12 00:49:51;;;;;;;5.45;3.97;;;24.20;48.30;;;;;;352401;28;971;-56
2023/09/12 00:50:04;;;;;;;5.70;4.18;;;24.20;48.30;;;;;;352373;28;890;-57
2023/09/12 00:50:17;;;;;;;5.70;4.50;;;24.20;48.30;;;;;;352216;28;2371;-56
2023/09/12 00:50:29;;;;;;;6.50;4.50;;;24.20;48.40;;;;;;352316;28;1086;-55
2023/09/12 00:50:42;;;;;;;6.57;4.18;;;24.20;48.40;;;;;;352401;28;1984;-56
2023/09/12 00:50:53;;;;;;;5.43;3.95;;;24.20;48.40;;;;;;352309;28;1060;-56
2023/09/12 00:51:05;;;;;;;5.07;3.92;;;24.20;48.40;;;;;;352403;28;960;-57
2023/09/12 00:51:16;;;;;;;5.00;3.78;;;24.20;48.40;;;;;;352407;28;919;-55
2023/09/12 00:51:27;;;;;;;5.55;3.90;;;24.20;48.30;;;;;;352283;28;1074;-56
2023/09/12 00:51:38;;;;;;;5.78;3.95;;;24.20;48.30;;;;;;352373;28;919;-56
2023/09/12 00:51:50;;;;;;;5.43;4.03;;;24.20;48.30;;;;;;352389;28;961;-56
2023/09/12 00:52:02;;;;;;;5.22;4.13;;;24.20;48.30;;;;;;352300;28;1102;-56
2023/09/12 00:52:14;;;;;;;4.75;4.07;;;24.20;48.40;;;;;;352352;28;1007;-57
2023/09/12 00:52:26;;;;;;;4.93;4.10;;;24.20;48.40;;;;;;352403;28;968;-57
2023/09/12 00:52:38;;;;;;;5.57;4.20;;;24.20;48.40;;;;;;352264;28;1110;-55
2023/09/12 00:52:49;;;;;;;5.63;4.20;;;24.20;48.50;;;;;;352433;28;892;-55
2023/09/12 00:53:02;;;;;;;4.88;4.10;;;24.20;48.40;;;;;;352456;28;868;-55
2023/09/12 00:53:14;;;;;;;5.20;4.50;;;24.20;48.50;;;;;;352269;28;1019;-56
2023/09/12 00:53:24;;;;;;;5.40;4.45;;;24.20;48.50;;;;;;352392;28;927;-56
2023/09/12 00:53:35;;;;;;;4.93;4.15;;;24.20;48.50;;;;;;352317;28;1188;-55
2023/09/12 00:53:47;;;;;;;4.75;4.15;;;24.20;48.50;;;;;;352207;28;1418;-55
2023/09/12 00:53:58;;;;;;;4.68;4.00;;;24.20;48.60;;;;;;352347;28;1185;-56
2023/09/12 00:54:09;;;;;;;5.00;4.18;;;24.20;48.50;;;;;;352401;28;1003;-57
2023/09/12 00:54:19;;;;;;;5.63;4.30;;;24.20;48.50;;;;;;352281;28;1273;-57
2023/09/12 00:54:30;;;;;;;6.28;4.40;;;24.10;48.50;;;;;;352360;28;1047;-56
2023/09/12 00:54:41;;;;;;;6.30;4.25;;;24.20;48.50;;;;;;352406;28;1025;-57
2023/09/12 00:54:53;;;;;;;5.63;4.03;;;24.20;48.60;;;;;;352340;28;976;-56
2023/09/12 00:55:05;;;;;;;5.15;4.00;;;24.20;48.60;;;;;;352346;28;1229;-55
2023/09/12 00:55:16;;;;;;;6.05;3.92;;;24.20;48.60;;;;;;352352;28;1022;-55
2023/09/12 00:55:31;;;;;;;6.95;4.05;;;24.20;48.60;;;;;;352327;28;993;-56
2023/09/12 00:55:49;;;;;;;7.22;4.30;;;24.20;48.60;;;;;;352346;28;980;-57
2023/09/12 00:56:01;;;;;;;6.25;4.28;;;24.20;48.60;;;;;;352254;28;928;-56
2023/09/12 00:56:12;;;;;;;5.72;4.10;;;24.20;48.60;;;;;;352337;28;1090;-56
2023/09/12 00:56:23;;;;;;;5.50;4.20;;;24.20;48.60;;;;;;352402;28;892;-55
2023/09/12 00:56:34;;;;;;;5.60;4.25;;;24.20;48.70;;;;;;352332;28;998;-55
2023/09/12 00:56:45;;;;;;;6.18;4.50;;;24.20;48.70;;;;;;352411;28;915;-55
2023/09/12 00:56:56;;;;;;;6.22;4.47;;;24.20;48.70;;;;;;352372;28;1078;-56
2023/09/12 00:57:07;;;;;;;6.35;4.65;;;24.20;48.70;;;;;;352272;28;923;-56
2023/09/12 00:57:18;;;;;;;6.18;4.60;;;24.20;48.70;;;;;;352437;28;1015;-56
2023/09/12 00:57:32;;;;;;;5.85;4.18;;;24.20;48.70;;;;;;352377;28;951;-56
2023/09/12 00:57:43;;;;;;;5.47;3.97;;;24.20;48.70;;;;;;352269;28;1189;-56
2023/09/12 00:57:54;;;;;;;5.07;4.13;;;24.10;48.70;;;;;;352346;28;991;-56
2023/09/12 00:58:04;;;;;;;5.35;4.38;;;24.20;48.70;;;;;;352260;28;1619;-56
2023/09/12 00:58:15;;;;;;;6.13;4.40;;;24.10;48.70;;;;;;352265;28;1023;-56
2023/09/12 00:58:27;;;;;;;6.57;4.50;;;24.20;48.70;;;;;;352363;28;993;-56
2023/09/12 00:58:38;;;;;;;5.95;4.30;;;24.10;48.70;;;;;;352358;28;1085;-56
2023/09/12 00:58:51;;;;;;;5.78;4.28;;;24.10;48.80;;;;;;352406;28;1007;-56
2023/09/12 00:59:02;;;;;;;5.35;4.30;;;24.10;48.80;;;;;;352236;28;1918;-55
2023/09/12 00:59:16;;;;;;;5.53;4.40;;;24.10;48.80;;;;;;352386;28;999;-56
2023/09/12 00:59:27;;;;;;;5.38;4.22;;;24.10;48.80;;;;;;352337;28;1114;-56
2023/09/12 00:59:37;;;;;;;5.75;4.15;;;24.10;48.80;;;;;;352356;28;1038;-57
2023/09/12 00:59:49;;;;;;;6.15;4.05;;;24.10;48.80;;;;;;352412;28;876;-55
2023/09/12 01:00:10;;;;;;;6.72;4.22;;;24.10;48.80;;;;;;352391;28;1027;-55
2023/09/12 01:00:22;;;;;;;5.70;4.43;;;24.10;48.80;;;;;;352327;28;1122;-56
2023/09/12 01:00:33;;;;;;;5.78;4.50;;;24.10;48.80;;;;;;352405;28;896;-57